createdAt,value
2019-04-01T00:00:56.218Z,100718.27
2019-04-01T00:03:22.942Z,100719.47
2019-04-01T00:05:49.698Z,100726.86
2019-04-01T00:08:16.423Z,100731.22
2019-04-01T00:10:43.170Z,100717.80
2019-04-01T00:13:09.906Z,100727.57
2019-04-01T00:15:36.666Z,100727.55
2019-04-01T00:18:03.411Z,100728.41
2019-04-01T00:20:30.159Z,100722.94
2019-04-01T00:22:57.006Z,100721.02
2019-04-01T00:25:23.653Z,100725.14
2019-04-01T00:27:50.414Z,100721.84
2019-04-01T00:30:17.177Z,100717.02
2019-04-01T00:32:43.942Z,100724.91
2019-04-01T00:35:10.726Z,100715.81
2019-04-01T00:37:37.453Z,100716.67
2019-04-01T00:40:04.370Z,100720.16
2019-04-01T00:42:42.904Z,100721.58
2019-04-01T00:45:10.539Z,100728.55
2019-04-01T00:47:37.312Z,100721.61
2019-04-01T00:50:04.190Z,100716.05
2019-04-01T00:52:30.935Z,100716.98
2019-04-01T00:54:57.690Z,100722.75
2019-04-01T00:57:24.438Z,100720.67
2019-04-01T00:59:51.167Z,100719.88
2019-04-01T01:02:17.914Z,100716.05
2019-04-01T01:04:44.651Z,100724.75
2019-04-01T01:07:11.429Z,100717.22
2019-04-01T01:09:38.137Z,100724.70
2019-04-01T01:12:04.884Z,100716.93
2019-04-01T01:14:31.610Z,100713.88
2019-04-01T01:16:58.349Z,100715.72
2019-04-01T01:19:25.091Z,100716.11
2019-04-01T01:21:51.831Z,100712.78
2019-04-01T01:24:18.566Z,100714.41
2019-04-01T01:26:45.310Z,100705.30
2019-04-01T01:29:12.045Z,100703.52
2019-04-01T01:31:38.795Z,100700.93
2019-04-01T01:34:05.627Z,100702.30
2019-04-01T01:36:32.642Z,100701.31
2019-04-01T01:38:59.358Z,100700.59
2019-04-01T01:41:26.112Z,100694.31
2019-04-01T01:43:53.028Z,100692.30
2019-04-01T01:46:19.774Z,100689.13
2019-04-01T01:48:46.525Z,100688.30
2019-04-01T01:51:13.299Z,100693.94
2019-04-01T01:53:41.587Z,100690.58
2019-04-01T01:56:06.783Z,100691.75
2019-04-01T01:58:33.547Z,100689.09
2019-04-01T02:01:00.422Z,100698.66
2019-04-01T02:03:27.172Z,100694.40
2019-04-01T02:05:53.910Z,100692.84
2019-04-01T02:08:20.670Z,100695.20
2019-04-01T02:10:47.406Z,100691.31
2019-04-01T02:13:14.153Z,100684.59
2019-04-01T02:15:40.895Z,100682.38
2019-04-01T02:18:07.650Z,100690.48
2019-04-01T02:20:34.417Z,100684.21
2019-04-01T02:23:01.158Z,100689.30
2019-04-01T02:25:27.946Z,100680.64
2019-04-01T02:27:54.694Z,100677.41
2019-04-01T02:30:21.459Z,100674.02
2019-04-01T02:32:48.207Z,100676.47
2019-04-01T02:35:14.930Z,100677.18
2019-04-01T02:37:41.688Z,100676.00
2019-04-01T02:40:08.430Z,100687.81
2019-04-01T02:42:35.193Z,100685.06
2019-04-01T02:45:01.935Z,100686.11
2019-04-01T02:47:28.679Z,100685.72
2019-04-01T02:49:55.401Z,100675.53
2019-04-01T02:52:22.153Z,100678.52
2019-04-01T02:54:48.871Z,100679.66
2019-04-01T02:57:15.618Z,100686.73
2019-04-01T02:59:42.363Z,100682.61
2019-04-01T03:02:09.094Z,100672.13
2019-04-01T03:04:35.869Z,100671.05
2019-04-01T03:07:02.597Z,100676.58
2019-04-01T03:09:29.358Z,100674.64
2019-04-01T03:11:56.083Z,100680.09
2019-04-01T03:14:22.864Z,100681.64
2019-04-01T03:16:49.606Z,100676.09
2019-04-01T03:19:16.366Z,100676.77
2019-04-01T03:21:43.096Z,100681.94
2019-04-01T03:24:09.857Z,100679.97
2019-04-01T03:26:36.585Z,100673.27
2019-04-01T03:29:03.334Z,100678.64
2019-04-01T03:31:30.135Z,100679.10
2019-04-01T03:33:56.980Z,100678.35
2019-04-01T03:36:23.705Z,100682.24
2019-04-01T03:38:50.452Z,100684.41
2019-04-01T03:41:17.344Z,100681.72
2019-04-01T03:43:43.946Z,100683.58
2019-04-01T03:46:10.716Z,100680.39
2019-04-01T03:48:37.457Z,100683.52
2019-04-01T03:51:04.196Z,100690.54
2019-04-01T03:53:30.946Z,100688.75
2019-04-01T03:55:57.675Z,100690.07
2019-04-01T03:58:24.424Z,100685.33
2019-04-01T04:00:51.216Z,100695.66
2019-04-01T04:03:17.963Z,100691.45
2019-04-01T04:05:44.682Z,100689.08
2019-04-01T04:08:11.431Z,100690.23
2019-04-01T04:10:38.168Z,100686.16
2019-04-01T04:13:04.892Z,100694.83
2019-04-01T04:15:31.652Z,100698.58
2019-04-01T04:17:58.415Z,100692.59
2019-04-01T04:20:25.169Z,100699.61
2019-04-01T04:22:52.300Z,100695.73
2019-04-01T04:25:19.031Z,100695.86
2019-04-01T04:27:45.782Z,100694.70
2019-04-01T04:30:16.366Z,100700.54
2019-04-01T04:32:43.099Z,100702.16
2019-04-01T04:35:09.847Z,100698.50
2019-04-01T04:37:36.590Z,100701.00
2019-04-01T04:40:04.046Z,100702.28
2019-04-01T04:42:30.797Z,100693.93
2019-04-01T04:44:57.756Z,100705.07
2019-04-01T04:47:24.402Z,100701.92
2019-04-01T04:49:51.169Z,100709.59
2019-04-01T04:52:17.898Z,100703.04
2019-04-01T04:54:44.709Z,100697.33
2019-04-01T04:57:11.426Z,100705.77
2019-04-01T04:59:38.203Z,100708.66
2019-04-01T05:02:04.935Z,100711.16
2019-04-01T05:04:31.695Z,100716.77
2019-04-01T05:06:58.455Z,100712.75
2019-04-01T05:09:25.278Z,100710.53
2019-04-01T05:11:52.180Z,100709.16
2019-04-01T05:14:18.930Z,100709.97
2019-04-01T05:16:45.669Z,100715.89
2019-04-01T05:19:12.442Z,100704.00
2019-04-01T05:21:39.172Z,100715.45
2019-04-01T05:24:05.890Z,100709.92
2019-04-01T05:26:33.131Z,100698.63
2019-04-01T05:28:59.866Z,100711.87
2019-04-01T05:31:26.602Z,100716.27
2019-04-01T05:33:55.580Z,100717.75
2019-04-01T05:36:20.221Z,100719.20
2019-04-01T05:38:47.001Z,100715.84
2019-04-01T05:41:13.740Z,100718.33
2019-04-01T05:43:40.463Z,100721.41
2019-04-01T05:46:07.207Z,100720.27
2019-04-01T05:48:33.949Z,100721.48
2019-04-01T05:51:01.510Z,100718.64
2019-04-01T05:53:28.250Z,100721.97
2019-04-01T05:55:55.005Z,100721.61
2019-04-01T05:58:21.747Z,100725.02
2019-04-01T06:00:54.124Z,100726.03
2019-04-01T06:03:21.022Z,100726.68
2019-04-01T06:05:47.769Z,100730.19
2019-04-01T06:08:14.518Z,100726.36
2019-04-01T06:10:41.271Z,100737.20
2019-04-01T06:13:08.014Z,100738.33
2019-04-01T06:15:34.758Z,100732.35
2019-04-01T06:18:01.510Z,100732.46
2019-04-01T06:20:28.266Z,100745.42
2019-04-01T06:22:55.006Z,100750.19
2019-04-01T06:25:21.758Z,100744.91
2019-04-01T06:27:48.510Z,100740.30
2019-04-01T06:30:15.326Z,100736.67
2019-04-01T06:32:42.086Z,100732.69
2019-04-01T06:35:08.834Z,100733.36
2019-04-01T06:37:35.591Z,100733.96
2019-04-01T06:40:02.354Z,100732.73
2019-04-01T06:42:29.110Z,100730.64
2019-04-01T06:44:55.833Z,100734.22
2019-04-01T06:47:22.590Z,100730.58
2019-04-01T06:49:49.322Z,100726.93
2019-04-01T06:52:16.077Z,100727.30
2019-04-01T06:54:42.798Z,100729.69
2019-04-01T06:57:09.546Z,100727.33
2019-04-01T06:59:36.298Z,100728.44
2019-04-01T07:02:03.112Z,100722.94
2019-04-01T07:04:29.905Z,100727.41
2019-04-01T07:06:56.670Z,100728.61
2019-04-01T07:09:23.485Z,100712.86
2019-04-01T07:11:50.254Z,100721.45
2019-04-01T07:14:16.994Z,100715.56
2019-04-01T07:16:43.749Z,100711.09
2019-04-01T07:19:10.501Z,100716.03
2019-04-01T07:21:37.291Z,100713.81
2019-04-01T07:24:04.030Z,100721.34
2019-04-01T07:26:30.902Z,100719.22
2019-04-01T07:28:57.642Z,100714.40
2019-04-01T07:31:24.404Z,100715.22
2019-04-01T07:33:51.126Z,100719.22
2019-04-01T07:36:17.879Z,100718.52
2019-04-01T07:38:44.626Z,100708.10
2019-04-01T07:41:11.363Z,100713.34
2019-04-01T07:43:38.118Z,100706.46
2019-04-01T07:46:07.986Z,100712.26
2019-04-01T07:48:31.648Z,100712.67
2019-04-01T07:50:58.361Z,100702.67
2019-04-01T07:53:25.110Z,100710.06
2019-04-01T07:55:51.920Z,100714.31
2019-04-01T07:58:18.674Z,100695.88
2019-04-01T08:00:45.393Z,100708.22
2019-04-01T08:03:12.857Z,100707.55
2019-04-01T08:05:39.583Z,100707.17
2019-04-01T08:08:06.350Z,100699.16
2019-04-01T08:10:33.306Z,100702.26
2019-04-01T08:13:00.063Z,100703.55
2019-04-01T08:15:26.830Z,100704.80
2019-04-01T08:17:53.582Z,100695.95
2019-04-01T08:20:20.328Z,100687.07
2019-04-01T08:22:47.075Z,100679.00
2019-04-01T08:25:13.801Z,100695.39
2019-04-01T08:27:40.546Z,100684.75
2019-04-01T08:30:07.294Z,100682.95
2019-04-01T08:32:34.034Z,100686.02
2019-04-01T08:35:00.762Z,100684.36
2019-04-01T08:37:27.522Z,100683.36
2019-04-01T08:39:54.248Z,100687.73
2019-04-01T08:42:21.033Z,100677.59
2019-04-01T08:44:47.765Z,100683.51
2019-04-01T08:47:14.505Z,100682.38
2019-04-01T08:49:41.235Z,100686.77
2019-04-01T08:52:07.974Z,100670.33
2019-04-01T08:54:34.687Z,100679.72
2019-04-01T08:57:01.430Z,100681.21
2019-04-01T08:59:28.179Z,100668.77
2019-04-01T09:01:54.906Z,100666.98
2019-04-01T09:04:21.662Z,100671.45
2019-04-01T09:06:48.393Z,100664.68
2019-04-01T09:09:15.199Z,100665.95
2019-04-01T09:11:42.095Z,100670.46
2019-04-01T09:14:08.854Z,100675.05
2019-04-01T09:16:35.584Z,100656.98
2019-04-01T09:19:02.334Z,100658.61
2019-04-01T09:21:29.054Z,100655.23
2019-04-01T09:23:55.807Z,100644.94
2019-04-01T09:26:22.593Z,100646.86
2019-04-01T09:28:49.294Z,100643.61
2019-04-01T09:31:16.018Z,100654.98
2019-04-01T09:33:42.794Z,100647.20
2019-04-01T09:36:09.528Z,100644.43
2019-04-01T09:38:36.271Z,100640.01
2019-04-01T09:41:03.274Z,100639.20
2019-04-01T09:43:30.014Z,100632.91
2019-04-01T09:45:56.754Z,100623.22
2019-04-01T09:48:23.871Z,100622.30
2019-04-01T09:50:50.232Z,100608.59
2019-04-01T09:53:16.978Z,100626.28
2019-04-01T09:55:43.706Z,100617.55
2019-04-01T09:58:10.522Z,100621.18
2019-04-01T10:00:37.256Z,100610.13
2019-04-01T10:03:04.005Z,100597.92
2019-04-01T10:05:30.740Z,100605.61
2019-04-01T10:07:57.579Z,100603.43
2019-04-01T10:10:24.302Z,100597.97
2019-04-01T10:12:51.051Z,100589.19
2019-04-01T10:15:17.807Z,100586.30
2019-04-01T10:17:44.547Z,100584.77
2019-04-01T10:20:11.330Z,100572.25
2019-04-01T10:22:38.078Z,100570.62
2019-04-01T10:25:04.826Z,100579.14
2019-04-01T10:27:31.578Z,100582.59
2019-04-01T10:29:58.341Z,100571.77
2019-04-01T10:32:25.082Z,100576.46
2019-04-01T10:34:51.833Z,100567.83
2019-04-01T10:37:18.565Z,100558.33
2019-04-01T10:39:45.307Z,100563.36
2019-04-01T10:42:12.042Z,100559.07
2019-04-01T10:44:38.782Z,100550.80
2019-04-01T10:47:05.521Z,100561.77
2019-04-01T10:49:32.363Z,100553.42
2019-04-01T10:51:59.030Z,100549.80
2019-04-01T10:54:25.827Z,100539.63
2019-04-01T10:56:52.607Z,100533.73
2019-04-01T10:59:19.293Z,100529.42
2019-04-01T11:01:46.015Z,100528.76
2019-04-01T11:04:12.807Z,100532.39
2019-04-01T11:06:39.478Z,100520.64
2019-04-01T11:09:07.033Z,100514.14
2019-04-01T11:11:33.714Z,100517.97
2019-04-01T11:14:00.468Z,100517.47
2019-04-01T11:16:27.215Z,100512.30
2019-04-01T11:18:53.977Z,100513.22
2019-04-01T11:21:20.708Z,100506.62
2019-04-01T11:23:47.467Z,100503.30
2019-04-01T11:26:14.203Z,100507.55
2019-04-01T11:28:40.986Z,100493.12
2019-04-01T11:31:07.729Z,100482.43
2019-04-01T11:33:34.530Z,100481.44
2019-04-01T11:36:01.236Z,100477.23
2019-04-01T11:38:28.058Z,100473.98
2019-04-01T11:40:54.741Z,100473.77
2019-04-01T11:43:21.510Z,100469.53
2019-04-01T11:45:48.230Z,100462.62
2019-04-01T11:48:14.950Z,100456.54
2019-04-01T11:50:41.707Z,100452.14
2019-04-01T11:53:08.403Z,100453.91
2019-04-01T11:55:35.177Z,100452.35
2019-04-01T11:58:01.898Z,100448.19
2019-04-01T12:00:28.661Z,100436.80
2019-04-01T12:02:55.399Z,100431.38
2019-04-01T12:05:22.172Z,100424.08
2019-04-01T12:07:48.871Z,100428.05
2019-04-01T12:10:15.638Z,100423.27
2019-04-01T12:12:42.363Z,100411.77
2019-04-01T12:15:11.990Z,100421.53
2019-04-01T12:17:35.873Z,100416.18
2019-04-01T12:20:02.641Z,100410.45
2019-04-01T12:22:29.372Z,100402.47
2019-04-01T12:24:56.190Z,100401.09
2019-04-01T12:27:22.921Z,100408.02
2019-04-01T12:29:50.050Z,100392.95
2019-04-01T12:32:16.756Z,100400.81
2019-04-01T12:34:43.535Z,100390.27
2019-04-01T12:37:10.246Z,100382.97
2019-04-01T12:39:36.990Z,100373.86
2019-04-01T12:42:03.725Z,100367.25
2019-04-01T12:44:30.484Z,100370.83
2019-04-01T12:46:57.222Z,100369.11
2019-04-01T12:49:23.972Z,100362.50
2019-04-01T12:51:50.708Z,100345.59
2019-04-01T12:54:17.466Z,100356.95
2019-04-01T12:56:44.213Z,100356.41
2019-04-01T12:59:10.971Z,100352.97
2019-04-01T13:01:37.697Z,100344.31
2019-04-01T13:04:04.554Z,100339.81
2019-04-01T13:06:31.183Z,100337.38
2019-04-01T13:08:57.962Z,100319.30
2019-04-01T13:11:24.740Z,100330.15
2019-04-01T13:13:51.471Z,100318.17
2019-04-01T13:16:18.220Z,100313.84
2019-04-01T13:18:44.944Z,100309.19
2019-04-01T13:21:11.806Z,100313.92
2019-04-01T13:23:38.533Z,100313.39
2019-04-01T13:26:05.296Z,100309.03
2019-04-01T13:28:32.030Z,100305.61
2019-04-01T13:30:58.783Z,100296.70
2019-04-01T13:33:25.574Z,100292.66
2019-04-01T13:35:52.895Z,100289.36
2019-04-01T13:38:19.066Z,100280.20
2019-04-01T13:40:45.798Z,100285.75
2019-04-01T13:43:14.012Z,100274.45
2019-04-01T13:45:39.398Z,100282.50
2019-04-01T13:48:06.157Z,100272.67
2019-04-01T13:50:32.947Z,100271.27
2019-04-01T13:52:59.638Z,100269.47
2019-04-01T13:55:26.385Z,100264.34
2019-04-01T13:57:53.120Z,100264.83
2019-04-01T14:00:20.332Z,100263.19
2019-04-01T14:02:46.679Z,100262.17
2019-04-01T14:05:13.446Z,100249.60
2019-04-01T14:07:40.256Z,100241.18
2019-04-01T14:10:07.018Z,100249.20
2019-04-01T14:12:33.774Z,100243.72
2019-04-01T14:15:00.508Z,100249.11
2019-04-01T14:17:27.265Z,100245.30
2019-04-01T14:19:54.063Z,100238.21
2019-04-01T14:22:20.834Z,100233.25
2019-04-01T14:24:47.562Z,100236.60
2019-04-01T14:27:14.385Z,100238.73
2019-04-01T14:29:41.130Z,100229.39
2019-04-01T14:32:07.882Z,100221.13
2019-04-01T14:34:35.445Z,100236.02
2019-04-01T14:37:01.391Z,100230.35
2019-04-01T14:39:28.128Z,100222.00
2019-04-01T14:41:54.928Z,100222.16
2019-04-01T14:44:21.647Z,100220.73
2019-04-01T14:46:48.399Z,100218.29
2019-04-01T14:49:15.134Z,100214.47
2019-04-01T14:51:42.606Z,100205.57
2019-04-01T14:54:08.622Z,100203.88
2019-04-01T14:56:35.531Z,100199.29
2019-04-01T14:59:02.271Z,100200.48
2019-04-01T15:01:30.185Z,100192.84
2019-04-01T15:03:55.746Z,100183.31
2019-04-01T15:06:22.507Z,100181.02
2019-04-01T15:08:49.249Z,100181.73
2019-04-01T15:11:16.036Z,100182.45
2019-04-01T15:13:42.782Z,100171.41
2019-04-01T15:16:09.546Z,100178.68
2019-04-01T15:18:36.286Z,100178.45
2019-04-01T15:21:03.063Z,100171.97
2019-04-01T15:23:29.773Z,100180.55
2019-04-01T15:28:22.872Z,100170.08
2019-04-01T15:30:49.606Z,100163.45
2019-04-01T15:33:16.355Z,100158.91
2019-04-01T15:35:43.162Z,100159.30
2019-04-01T15:38:09.893Z,100162.61
2019-04-01T15:40:36.574Z,100150.60
2019-04-01T15:43:03.334Z,100144.23
2019-04-01T15:45:31.408Z,100149.19
2019-04-01T15:47:56.854Z,100138.42
2019-04-01T15:50:28.945Z,100141.84
2019-04-01T15:52:50.340Z,100139.51
2019-04-01T15:55:17.125Z,100135.92
2019-04-01T15:57:43.968Z,100137.41
2019-04-01T16:00:10.726Z,100130.52
2019-04-01T16:02:37.482Z,100132.03
2019-04-01T16:05:05.910Z,100129.80
2019-04-01T16:07:31.297Z,100131.50
2019-04-01T16:09:58.035Z,100131.84
2019-04-01T16:12:24.835Z,100124.14
2019-04-01T16:14:51.554Z,100118.87
2019-04-01T16:17:18.342Z,100117.79
2019-04-01T16:19:45.084Z,100121.30
2019-04-01T16:22:12.156Z,100119.78
2019-04-01T16:24:38.873Z,100116.64
2019-04-01T16:27:05.622Z,100121.97
2019-04-01T16:29:32.374Z,100116.71
2019-04-01T16:31:59.128Z,100121.47
2019-04-01T16:34:25.947Z,100118.63
2019-04-01T16:36:52.746Z,100115.80
2019-04-01T16:39:19.475Z,100113.45
2019-04-01T16:41:49.943Z,100115.39
2019-04-01T16:44:12.970Z,100116.00
2019-04-01T16:46:40.246Z,100119.45
2019-04-01T16:49:07.460Z,100122.60
2019-04-01T16:51:33.426Z,100115.14
2019-04-01T16:54:00.183Z,100114.53
2019-04-01T16:56:26.935Z,100117.63
2019-04-01T16:58:53.694Z,100115.05
2019-04-01T17:01:20.455Z,100115.14
2019-04-01T17:03:47.233Z,100117.37
2019-04-01T17:06:13.942Z,100115.28
2019-04-01T17:08:40.707Z,100114.91
2019-04-01T17:11:07.459Z,100120.05
2019-04-01T17:13:34.191Z,100119.00
2019-04-01T17:16:01.637Z,100115.77
2019-04-01T17:18:27.686Z,100115.66
2019-04-01T17:20:54.437Z,100114.26
2019-04-01T17:23:21.205Z,100116.53
2019-04-01T17:25:47.958Z,100113.70
2019-04-01T17:28:14.703Z,100114.25
2019-04-01T17:30:41.428Z,100115.02
2019-04-01T17:33:08.685Z,100118.09
2019-04-01T17:35:34.918Z,100117.89
2019-04-01T17:38:01.659Z,100121.73
2019-04-01T17:40:28.405Z,100120.88
2019-04-01T17:42:55.207Z,100126.38
2019-04-01T17:45:29.337Z,100127.87
2019-04-01T17:47:56.079Z,100128.13
2019-04-01T17:50:22.830Z,100123.13
2019-04-01T17:52:49.638Z,100123.08
2019-04-01T17:55:17.243Z,100123.76
2019-04-01T17:57:43.133Z,100125.88
2019-04-01T18:00:10.608Z,100122.77
2019-04-01T18:02:37.350Z,100125.50
2019-04-01T18:05:04.188Z,100123.80
2019-04-01T18:07:30.924Z,100120.02
2019-04-01T18:09:57.650Z,100125.03
2019-04-01T18:12:24.402Z,100122.50
2019-04-01T18:14:51.155Z,100129.28
2019-04-01T18:17:18.655Z,100123.50
2019-04-01T18:19:44.729Z,100126.98
2019-04-01T18:22:12.503Z,100131.41
2019-04-01T18:24:39.319Z,100118.80
2019-04-01T18:27:06.165Z,100120.09
2019-04-01T18:29:32.989Z,100121.06
2019-04-01T18:31:59.784Z,100122.96
2019-04-01T18:34:27.944Z,100127.30
2019-04-01T18:36:53.336Z,100124.78
2019-04-01T18:39:20.076Z,100131.82
2019-04-01T18:41:46.842Z,100133.16
2019-04-01T18:44:13.635Z,100134.62
2019-04-01T18:46:40.385Z,100131.01
2019-04-01T18:49:07.121Z,100135.99
2019-04-01T18:51:36.453Z,100133.09
2019-04-01T18:54:00.614Z,100140.81
2019-04-01T18:56:28.229Z,100136.81
2019-04-01T18:58:54.411Z,100142.25
2019-04-01T19:01:20.909Z,100146.05
2019-04-01T19:03:47.656Z,100144.91
2019-04-01T19:06:14.427Z,100149.35
2019-04-01T19:08:41.146Z,100150.81
2019-04-01T19:11:07.910Z,100149.50
2019-04-01T19:13:34.634Z,100150.13
2019-04-01T19:16:03.373Z,100149.86
2019-04-01T19:18:28.142Z,100152.32
2019-04-01T19:20:56.408Z,100152.32
2019-04-01T19:23:21.686Z,100153.78
2019-04-01T19:25:48.444Z,100150.22
2019-04-01T19:28:15.174Z,100154.94
2019-04-01T19:30:43.150Z,100148.58
2019-04-01T19:33:09.058Z,100142.70
2019-04-01T19:35:35.397Z,100150.38
2019-04-01T19:38:02.123Z,100149.05
2019-04-01T19:40:28.878Z,100146.30
2019-04-01T19:42:55.612Z,100146.76
2019-04-01T19:45:22.359Z,100147.56
2019-04-01T19:47:49.106Z,100150.51
2019-04-01T19:50:18.316Z,100151.33
2019-04-01T19:52:44.310Z,100146.59
2019-04-01T19:55:09.376Z,100149.05
2019-04-01T19:57:36.146Z,100150.33
2019-04-01T20:00:03.364Z,100142.48
2019-04-01T20:02:30.113Z,100149.11
2019-04-01T20:04:56.842Z,100144.77
2019-04-01T20:07:23.643Z,100144.11
2019-04-01T20:09:50.381Z,100134.02
2019-04-01T20:12:17.127Z,100134.34
2019-04-01T20:14:43.866Z,100132.55
2019-04-01T20:17:10.614Z,100129.80
2019-04-01T20:19:37.354Z,100132.22
2019-04-01T20:22:04.294Z,100125.37
2019-04-01T20:24:31.013Z,100129.45
2019-04-01T20:26:57.769Z,100133.02
2019-04-01T20:29:24.510Z,100124.19
2019-04-01T20:31:51.250Z,100131.86
2019-04-01T20:34:19.796Z,100128.76
2019-04-01T20:36:44.821Z,100125.63
2019-04-01T20:39:11.572Z,100122.20
2019-04-01T20:41:38.298Z,100118.16
2019-04-01T20:44:05.173Z,100117.67
2019-04-01T20:46:31.923Z,100116.98
2019-04-01T20:48:58.659Z,100116.62
2019-04-01T20:51:26.121Z,100121.30
2019-04-01T20:53:52.127Z,100121.19
2019-04-01T20:56:20.141Z,100111.16
2019-04-01T20:58:45.594Z,100115.17
2019-04-01T21:01:12.326Z,100116.36
2019-04-01T21:03:39.071Z,100114.98
2019-04-01T21:06:05.793Z,100112.38
2019-04-01T21:08:32.539Z,100108.69
2019-04-01T21:10:59.265Z,100107.33
2019-04-01T21:13:26.021Z,100108.86
2019-04-01T21:15:52.754Z,100106.14
2019-04-01T21:18:20.056Z,100106.75
2019-04-01T21:20:46.245Z,100103.66
2019-04-01T21:23:12.985Z,100096.70
2019-04-01T21:25:39.719Z,100099.27
2019-04-01T21:28:06.463Z,100096.82
2019-04-01T21:30:33.190Z,100101.54
2019-04-01T21:32:59.961Z,100099.25
2019-04-01T21:35:26.687Z,100098.23
2019-04-01T21:37:53.435Z,100099.38
2019-04-01T21:40:20.254Z,100094.30
2019-04-01T21:42:47.013Z,100089.41
2019-04-01T21:45:13.738Z,100086.94
2019-04-01T21:47:41.220Z,100094.09
2019-04-01T21:50:07.226Z,100086.34
2019-04-01T21:52:33.980Z,100087.48
2019-04-01T21:55:00.698Z,100083.72
2019-04-01T21:57:27.443Z,100089.86
2019-04-01T21:59:54.175Z,100092.97
2019-04-01T22:02:20.933Z,100093.67
2019-04-01T22:04:47.662Z,100092.45
2019-04-01T22:07:14.392Z,100084.47
2019-04-01T22:09:41.130Z,100089.36
2019-04-01T22:12:07.862Z,100078.86
2019-04-01T22:14:34.610Z,100078.72
2019-04-01T22:17:01.354Z,100076.78
2019-04-01T22:19:28.098Z,100072.30
2019-04-01T22:21:54.845Z,100076.88
2019-04-01T22:24:21.589Z,100077.04
2019-04-01T22:26:48.322Z,100071.67
2019-04-01T22:29:15.059Z,100072.98
2019-04-01T22:31:41.901Z,100069.05
2019-04-01T22:34:09.223Z,100070.41
2019-04-01T22:36:35.374Z,100070.97
2019-04-01T22:39:02.135Z,100071.56
2019-04-01T22:41:29.369Z,100077.86
2019-04-01T22:43:55.618Z,100069.80
2019-04-01T22:46:22.439Z,100074.98
2019-04-01T22:48:49.209Z,100072.11
2019-04-01T22:51:15.943Z,100069.66
2019-04-01T22:53:42.690Z,100064.55
2019-04-01T22:56:09.421Z,100067.27
2019-04-01T22:58:36.162Z,100060.86
2019-04-01T23:01:02.913Z,100056.38
2019-04-01T23:03:29.651Z,100060.71
2019-04-01T23:05:56.394Z,100059.20
2019-04-01T23:08:23.136Z,100059.56
2019-04-01T23:10:50.081Z,100058.63
2019-04-01T23:13:16.814Z,100057.52
2019-04-01T23:15:44.166Z,100055.39
2019-04-01T23:18:10.308Z,100052.83
2019-04-01T23:20:37.076Z,100047.16
2019-04-01T23:23:03.798Z,100048.09
2019-04-01T23:25:30.531Z,100041.77
2019-04-01T23:27:57.360Z,100036.97
2019-04-01T23:30:24.096Z,100038.60
2019-04-01T23:32:50.816Z,100040.98
2019-04-01T23:35:17.587Z,100031.60
2019-04-01T23:37:44.314Z,100026.80
2019-04-01T23:40:11.070Z,100022.74
2019-04-01T23:42:38.218Z,100027.55
2019-04-01T23:45:05.014Z,100021.53
2019-04-01T23:47:31.746Z,100025.83
2019-04-01T23:49:58.486Z,100024.39
2019-04-01T23:52:25.220Z,100024.94
2019-04-01T23:54:51.983Z,100028.52
2019-04-01T23:57:18.726Z,100019.09
2019-04-01T23:59:45.485Z,100022.36
